createdAt,value
2023-04-26T00:00:46.550Z,462.00
2023-04-26T00:01:46.568Z,461.00
2023-04-26T00:02:46.691Z,461.00
2023-04-26T00:03:46.950Z,461.00
2023-04-26T00:04:46.856Z,463.00
2023-04-26T00:05:46.797Z,465.00
2023-04-26T00:06:46.738Z,466.00
2023-04-26T00:07:46.748Z,467.00
2023-04-26T00:08:46.774Z,467.00
2023-04-26T00:09:46.816Z,469.00
2023-04-26T00:10:46.864Z,471.00
2023-04-26T00:11:46.889Z,470.00
2023-04-26T00:12:46.938Z,468.00
2023-04-26T00:13:46.992Z,467.00
2023-04-26T00:14:47.003Z,469.00
2023-04-26T00:15:47.033Z,466.00
2023-04-26T00:16:47.243Z,466.00
2023-04-26T00:17:47.188Z,467.00
2023-04-26T00:18:47.155Z,469.00
2023-04-26T00:19:47.272Z,471.00
2023-04-26T00:20:47.248Z,472.00
2023-04-26T00:21:47.280Z,472.00
2023-04-26T00:22:47.328Z,473.00
2023-04-26T00:23:47.368Z,474.00
2023-04-26T00:24:47.416Z,471.00
2023-04-26T00:25:47.455Z,467.00
2023-04-26T00:26:47.485Z,467.00
2023-04-26T00:27:47.513Z,465.00
2023-04-26T00:28:47.567Z,465.00
2023-04-26T00:29:47.627Z,464.00
2023-04-26T00:30:47.687Z,464.00
2023-04-26T00:31:47.728Z,467.00
2023-04-26T00:32:47.796Z,469.00
2023-04-26T00:33:47.768Z,466.00
2023-04-26T00:34:47.840Z,466.00
2023-04-26T00:35:47.867Z,464.00
2023-04-26T00:36:47.896Z,463.00
2023-04-26T00:37:47.932Z,463.00
2023-04-26T00:38:47.986Z,464.00
2023-04-26T00:39:48.022Z,467.00
2023-04-26T00:40:48.054Z,466.00
2023-04-26T00:41:48.103Z,465.00
2023-04-26T00:42:48.101Z,468.00
2023-04-26T00:43:48.171Z,469.00
2023-04-26T00:44:48.222Z,469.00
2023-04-26T00:45:48.335Z,468.00
2023-04-26T00:46:48.295Z,467.00
2023-04-26T00:47:48.356Z,466.00
2023-04-26T00:48:48.362Z,467.00
2023-04-26T00:49:48.446Z,468.00
2023-04-26T00:50:48.492Z,465.00
2023-04-26T00:51:48.514Z,466.00
2023-04-26T00:52:48.569Z,467.00
2023-04-26T00:53:48.589Z,469.00
2023-04-26T00:54:48.623Z,467.00
2023-04-26T00:55:48.685Z,467.00
2023-04-26T00:56:48.729Z,466.00
2023-04-26T00:57:48.739Z,467.00
2023-04-26T00:58:48.785Z,468.00
2023-04-26T00:59:48.828Z,469.00
2023-04-26T01:00:48.872Z,469.00
2023-04-26T01:01:48.928Z,469.00
2023-04-26T01:02:49.093Z,470.00
2023-04-26T01:03:49.143Z,469.00
2023-04-26T01:04:49.049Z,472.00
2023-04-26T01:05:49.105Z,470.00
2023-04-26T01:06:49.126Z,471.00
2023-04-26T01:07:49.179Z,471.00
2023-04-26T01:08:49.367Z,472.00
2023-04-26T01:09:49.281Z,472.00
2023-04-26T01:10:49.332Z,471.00
2023-04-26T01:11:49.405Z,473.00
2023-04-26T01:12:49.413Z,471.00
2023-04-26T01:13:49.484Z,472.00
2023-04-26T01:14:49.542Z,473.00
2023-04-26T01:15:49.598Z,471.00
2023-04-26T01:16:49.716Z,473.00
2023-04-26T01:17:49.728Z,472.00
2023-04-26T01:18:49.815Z,472.00
2023-04-26T01:19:49.800Z,473.00
2023-04-26T01:20:49.856Z,473.00
2023-04-26T01:21:49.921Z,472.00
2023-04-26T01:22:49.938Z,471.00
2023-04-26T01:23:50.041Z,471.00
2023-04-26T01:24:50.098Z,471.00
2023-04-26T01:25:50.142Z,470.00
2023-04-26T01:26:50.201Z,469.00
2023-04-26T01:27:50.275Z,468.00
2023-04-26T01:28:50.493Z,469.00
2023-04-26T01:29:50.325Z,471.00
2023-04-26T01:30:50.447Z,471.00
2023-04-26T01:31:50.454Z,471.00
2023-04-26T01:32:50.563Z,472.00
2023-04-26T01:33:50.592Z,473.00
2023-04-26T01:34:50.637Z,474.00
2023-04-26T01:35:50.706Z,474.00
2023-04-26T01:36:50.751Z,472.00
2023-04-26T01:37:50.794Z,471.00
2023-04-26T01:38:50.999Z,469.00
2023-04-26T01:39:50.912Z,470.00
2023-04-26T01:40:51.008Z,469.00
2023-04-26T01:41:51.020Z,470.00
2023-04-26T01:42:51.088Z,470.00
2023-04-26T01:43:51.135Z,471.00
2023-04-26T01:44:51.256Z,473.00
2023-04-26T01:45:51.296Z,474.00
2023-04-26T01:46:51.386Z,476.00
2023-04-26T01:47:51.405Z,475.00
2023-04-26T01:48:51.592Z,476.00
2023-04-26T01:49:51.526Z,475.00
2023-04-26T01:50:51.543Z,475.00
2023-04-26T01:51:51.620Z,473.00
2023-04-26T01:52:51.693Z,472.00
2023-04-26T01:53:51.740Z,472.00
2023-04-26T01:54:51.822Z,472.00
2023-04-26T01:55:51.860Z,472.00
2023-04-26T01:56:51.916Z,473.00
2023-04-26T01:57:51.966Z,474.00
2023-04-26T01:58:52.243Z,473.00
2023-04-26T01:59:52.116Z,473.00
2023-04-26T02:00:52.182Z,473.00
2023-04-26T02:01:52.281Z,472.00
2023-04-26T02:02:52.346Z,474.00
2023-04-26T02:03:52.333Z,475.00
2023-04-26T02:04:52.508Z,477.00
2023-04-26T02:05:52.490Z,476.00
2023-04-26T02:06:52.510Z,473.00
2023-04-26T02:07:52.588Z,474.00
2023-04-26T02:08:52.881Z,473.00
2023-04-26T02:09:52.703Z,470.00
2023-04-26T02:10:52.771Z,469.00
2023-04-26T02:11:52.799Z,469.00
2023-04-26T02:12:52.877Z,468.00
2023-04-26T02:13:52.961Z,468.00
2023-04-26T02:14:53.013Z,469.00
2023-04-26T02:15:53.119Z,467.00
2023-04-26T02:16:53.127Z,466.00
2023-04-26T02:17:53.196Z,465.00
2023-04-26T02:18:53.794Z,466.00
2023-04-26T02:19:53.298Z,468.00
2023-04-26T02:20:53.381Z,468.00
2023-04-26T02:21:53.434Z,468.00
2023-04-26T02:22:53.486Z,468.00
2023-04-26T02:23:53.541Z,468.00
2023-04-26T02:24:53.601Z,468.00
2023-04-26T02:25:53.687Z,468.00
2023-04-26T02:26:53.732Z,469.00
2023-04-26T02:27:53.753Z,472.00
2023-04-26T02:28:53.991Z,472.00
2023-04-26T02:29:53.991Z,471.00
2023-04-26T02:30:53.978Z,469.00
2023-04-26T02:31:54.132Z,469.00
2023-04-26T02:32:54.128Z,469.00
2023-04-26T02:33:54.131Z,471.00
2023-04-26T02:34:54.207Z,475.00
2023-04-26T02:35:54.264Z,474.00
2023-04-26T02:36:54.339Z,474.00
2023-04-26T02:37:54.377Z,476.00
2023-04-26T02:38:54.701Z,474.00
2023-04-26T02:39:54.522Z,474.00
2023-04-26T02:40:54.579Z,477.00
2023-04-26T02:41:54.623Z,479.00
2023-04-26T02:42:54.689Z,479.00
2023-04-26T02:43:54.768Z,481.00
2023-04-26T02:44:54.857Z,479.00
2023-04-26T02:45:54.916Z,479.00
2023-04-26T02:46:54.997Z,479.00
2023-04-26T02:47:55.044Z,478.00
2023-04-26T02:48:55.205Z,478.00
2023-04-26T02:49:55.155Z,478.00
2023-04-26T02:50:55.227Z,476.00
2023-04-26T02:51:55.274Z,476.00
2023-04-26T02:52:55.325Z,476.00
2023-04-26T02:53:55.370Z,475.00
2023-04-26T02:54:55.430Z,474.00
2023-04-26T02:55:55.512Z,474.00
2023-04-26T02:56:55.543Z,473.00
2023-04-26T02:57:55.610Z,474.00
2023-04-26T02:58:55.664Z,473.00
2023-04-26T02:59:55.747Z,473.00
2023-04-26T03:00:55.798Z,474.00
2023-04-26T03:01:55.889Z,476.00
2023-04-26T03:02:56.099Z,478.00
2023-04-26T03:03:56.100Z,477.00
2023-04-26T03:04:56.030Z,477.00
2023-04-26T03:05:56.082Z,476.00
2023-04-26T03:06:56.126Z,476.00
2023-04-26T03:07:56.213Z,476.00
2023-04-26T03:08:56.273Z,477.00
2023-04-26T03:09:56.347Z,476.00
2023-04-26T03:10:56.382Z,473.00
2023-04-26T03:11:56.482Z,476.00
2023-04-26T03:12:56.500Z,474.00
2023-04-26T03:13:56.569Z,476.00
2023-04-26T03:14:56.691Z,477.00
2023-04-26T03:15:56.662Z,478.00
2023-04-26T03:16:56.856Z,477.00
2023-04-26T03:17:56.857Z,478.00
2023-04-26T03:18:56.884Z,477.00
2023-04-26T03:19:56.958Z,478.00
2023-04-26T03:20:56.994Z,478.00
2023-04-26T03:21:57.036Z,477.00
2023-04-26T03:22:57.119Z,477.00
2023-04-26T03:23:57.147Z,476.00
2023-04-26T03:24:57.205Z,477.00
2023-04-26T03:25:57.247Z,477.00
2023-04-26T03:26:57.261Z,477.00
2023-04-26T03:27:57.358Z,479.00
2023-04-26T03:28:57.333Z,478.00
2023-04-26T03:29:57.398Z,477.00
2023-04-26T03:30:57.399Z,475.00
2023-04-26T03:31:57.536Z,473.00
2023-04-26T03:32:57.499Z,472.00
2023-04-26T03:33:57.462Z,472.00
2023-04-26T03:34:57.532Z,474.00
2023-04-26T03:35:57.506Z,474.00
2023-04-26T03:36:57.551Z,473.00
2023-04-26T03:37:58.694Z,474.00
2023-04-26T03:38:57.606Z,475.00
2023-04-26T03:39:57.607Z,472.00
2023-04-26T03:40:57.591Z,473.00
2023-04-26T03:41:57.635Z,474.00
2023-04-26T03:42:57.664Z,474.00
2023-04-26T03:43:57.658Z,475.00
2023-04-26T03:44:57.649Z,474.00
2023-04-26T03:45:57.746Z,473.00
2023-04-26T03:46:57.745Z,475.00
2023-04-26T03:47:57.808Z,475.00
2023-04-26T03:48:57.835Z,477.00
2023-04-26T03:49:57.864Z,479.00
2023-04-26T03:50:57.887Z,479.00
2023-04-26T03:51:57.956Z,479.00
2023-04-26T03:52:57.999Z,478.00
2023-04-26T03:53:58.036Z,479.00
2023-04-26T03:54:58.054Z,480.00
2023-04-26T03:55:58.091Z,479.00
2023-04-26T03:56:58.099Z,480.00
2023-04-26T03:57:58.676Z,479.00
2023-04-26T03:58:58.163Z,478.00
2023-04-26T03:59:58.227Z,478.00
2023-04-26T04:00:58.240Z,477.00
2023-04-26T04:01:58.368Z,478.00
2023-04-26T04:02:58.411Z,476.00
2023-04-26T04:03:58.663Z,474.00
2023-04-26T04:04:58.538Z,477.00
2023-04-26T04:05:58.457Z,478.00
2023-04-26T04:06:58.462Z,478.00
2023-04-26T04:07:58.462Z,478.00
2023-04-26T04:08:58.508Z,479.00
2023-04-26T04:09:58.498Z,480.00
2023-04-26T04:10:58.512Z,480.00
2023-04-26T04:11:58.524Z,480.00
2023-04-26T04:12:58.521Z,484.00
2023-04-26T04:13:58.512Z,483.00
2023-04-26T04:14:58.494Z,481.00
2023-04-26T04:15:58.542Z,480.00
2023-04-26T04:16:58.493Z,479.00
2023-04-26T04:17:58.556Z,480.00
2023-04-26T04:18:58.503Z,479.00
2023-04-26T04:19:58.546Z,480.00
2023-04-26T04:20:58.469Z,482.00
2023-04-26T04:21:58.480Z,485.00
2023-04-26T04:22:58.496Z,486.00
2023-04-26T04:23:58.503Z,485.00
2023-04-26T04:24:58.508Z,485.00
2023-04-26T04:25:58.447Z,484.00
2023-04-26T04:26:58.481Z,483.00
2023-04-26T04:27:58.442Z,483.00
2023-04-26T04:28:58.480Z,481.00
2023-04-26T04:29:58.466Z,483.00
2023-04-26T04:30:58.502Z,484.00
2023-04-26T04:31:58.456Z,484.00
2023-04-26T04:32:58.468Z,482.00
2023-04-26T04:33:58.466Z,481.00
2023-04-26T04:34:58.463Z,480.00
2023-04-26T04:35:58.459Z,481.00
2023-04-26T04:36:58.457Z,483.00
2023-04-26T04:37:58.458Z,483.00
2023-04-26T04:38:58.441Z,480.00
2023-04-26T04:39:58.454Z,480.00
2023-04-26T04:40:58.445Z,478.00
2023-04-26T04:41:58.472Z,478.00
2023-04-26T04:42:58.410Z,478.00
2023-04-26T04:43:58.440Z,477.00
2023-04-26T04:44:58.439Z,479.00
2023-04-26T04:45:58.450Z,478.00
2023-04-26T04:46:58.469Z,477.00
2023-04-26T04:47:58.483Z,476.00
2023-04-26T04:48:58.442Z,477.00
2023-04-26T04:49:58.571Z,481.00
2023-04-26T04:50:58.532Z,483.00
2023-04-26T04:51:58.625Z,484.00
2023-04-26T04:52:58.656Z,481.00
2023-04-26T04:53:58.739Z,482.00
2023-04-26T04:54:58.808Z,483.00
2023-04-26T04:55:58.888Z,480.00
2023-04-26T04:56:58.918Z,482.00
2023-04-26T04:57:58.986Z,483.00
2023-04-26T04:58:59.079Z,478.00
2023-04-26T04:59:59.116Z,479.00
2023-04-26T05:00:59.163Z,479.00
2023-04-26T05:01:59.283Z,479.00
2023-04-26T05:02:59.324Z,479.00
2023-04-26T05:03:59.573Z,477.00
2023-04-26T05:04:59.462Z,479.00
2023-04-26T05:05:59.507Z,477.00
2023-04-26T05:06:59.527Z,477.00
2023-04-26T05:07:59.626Z,475.00
2023-04-26T05:08:59.685Z,476.00
2023-04-26T05:09:59.799Z,478.00
2023-04-26T05:10:59.785Z,480.00
2023-04-26T05:11:59.858Z,479.00
2023-04-26T05:12:59.920Z,481.00
2023-04-26T05:13:59.978Z,481.00
2023-04-26T05:15:00.088Z,478.00
2023-04-26T05:16:00.199Z,476.00
2023-04-26T05:17:00.176Z,477.00
2023-04-26T05:18:00.268Z,477.00
2023-04-26T05:19:00.289Z,479.00
2023-04-26T05:20:00.336Z,479.00
2023-04-26T05:21:00.399Z,480.00
2023-04-26T05:22:00.447Z,479.00
2023-04-26T05:23:00.510Z,476.00
2023-04-26T05:24:00.563Z,476.00
2023-04-26T05:25:00.665Z,474.00
2023-04-26T05:26:00.716Z,475.00
2023-04-26T05:27:00.809Z,475.00
2023-04-26T05:28:00.788Z,475.00
2023-04-26T05:29:00.879Z,476.00
2023-04-26T05:30:00.946Z,476.00
2023-04-26T05:31:01.000Z,477.00
2023-04-26T05:32:01.052Z,478.00
2023-04-26T05:33:01.197Z,480.00
2023-04-26T05:34:01.156Z,478.00
2023-04-26T05:35:01.204Z,480.00
2023-04-26T05:36:01.284Z,481.00
2023-04-26T05:37:01.324Z,492.00
2023-04-26T05:38:01.381Z,489.00
2023-04-26T05:39:01.431Z,498.00
2023-04-26T05:40:01.699Z,496.00
2023-04-26T05:41:01.518Z,493.00
2023-04-26T05:42:01.527Z,493.00
2023-04-26T05:43:01.553Z,499.00
2023-04-26T05:44:01.562Z,508.00
2023-04-26T05:45:01.696Z,515.00
2023-04-26T05:46:01.656Z,574.00
2023-04-26T05:47:01.639Z,591.00
2023-04-26T05:48:01.650Z,607.00
2023-04-26T05:49:01.645Z,624.00
2023-04-26T05:50:01.746Z,649.00
2023-04-26T05:51:01.646Z,748.00
2023-04-26T05:52:01.696Z,704.00
2023-04-26T05:53:01.695Z,722.00
2023-04-26T05:54:01.794Z,724.00
2023-04-26T05:55:01.674Z,727.00
2023-04-26T05:56:01.666Z,738.00
2023-04-26T05:57:01.728Z,761.00
2023-04-26T05:58:01.727Z,790.00
2023-04-26T05:59:01.762Z,800.00
2023-04-26T06:00:01.724Z,811.00
2023-04-26T06:01:01.742Z,811.00
2023-04-26T06:02:01.792Z,824.00
2023-04-26T06:03:01.973Z,874.00
2023-04-26T06:04:02.386Z,948.00
2023-04-26T06:05:02.125Z,948.00
2023-04-26T06:06:02.042Z,961.00
2023-04-26T06:07:01.991Z,961.00
2023-04-26T06:08:02.075Z,959.00
2023-04-26T06:09:02.099Z,975.00
2023-04-26T06:10:02.193Z,986.00
2023-04-26T06:11:02.181Z,996.00
2023-04-26T06:12:02.271Z,1002.00
2023-04-26T06:13:02.249Z,1002.00
2023-04-26T06:14:02.283Z,1004.00
2023-04-26T06:15:02.353Z,1005.00
2023-04-26T06:16:02.352Z,1005.00
2023-04-26T06:17:02.374Z,1026.00
2023-04-26T06:18:02.414Z,1054.00
2023-04-26T06:19:02.423Z,1033.00
2023-04-26T06:20:02.462Z,1029.00
2023-04-26T06:21:02.418Z,1038.00
2023-04-26T06:22:02.450Z,1062.00
2023-04-26T06:23:02.483Z,1068.00
2023-04-26T06:24:02.473Z,1085.00
2023-04-26T06:25:02.477Z,1139.00
2023-04-26T06:26:02.494Z,1135.00
2023-04-26T06:27:02.464Z,1097.00
2023-04-26T06:28:02.601Z,1088.00
2023-04-26T06:29:02.488Z,1166.00
2023-04-26T06:30:02.558Z,1153.00
2023-04-26T06:31:02.521Z,1142.00
2023-04-26T06:32:02.499Z,1131.00
2023-04-26T06:33:02.509Z,1142.00
2023-04-26T06:34:02.472Z,1141.00
2023-04-26T06:35:02.476Z,1143.00
2023-04-26T06:36:02.656Z,1132.00
2023-04-26T06:37:02.499Z,1078.00
2023-04-26T06:38:02.492Z,1092.00
2023-04-26T06:39:02.503Z,1059.00
2023-04-26T06:40:02.536Z,1077.00
2023-04-26T06:41:02.483Z,1196.00
2023-04-26T06:42:02.518Z,1126.00
2023-04-26T06:43:02.541Z,1114.00
2023-04-26T06:44:02.565Z,1098.00
2023-04-26T06:45:02.594Z,1134.00
2023-04-26T06:46:02.764Z,1137.00
2023-04-26T06:47:02.635Z,1178.00
2023-04-26T06:48:02.741Z,1076.00
2023-04-26T06:49:02.726Z,1102.00
2023-04-26T06:50:03.228Z,1048.00
2023-04-26T06:51:02.767Z,1113.00
2023-04-26T06:52:02.806Z,1083.00
2023-04-26T06:53:02.791Z,996.00
2023-04-26T06:54:02.773Z,1203.00
2023-04-26T06:55:02.787Z,1129.00
2023-04-26T06:56:02.795Z,1116.00
2023-04-26T06:57:02.768Z,1119.00
2023-04-26T06:58:02.864Z,1141.00
2023-04-26T06:59:02.818Z,1155.00
2023-04-26T07:00:02.917Z,1170.00
2023-04-26T07:01:02.980Z,1182.00
2023-04-26T07:02:03.172Z,1193.00
2023-04-26T07:03:03.140Z,1229.00
2023-04-26T07:04:03.368Z,1244.00
2023-04-26T07:05:03.393Z,1249.00
2023-04-26T07:06:03.367Z,1253.00
2023-04-26T07:07:03.220Z,1238.00
2023-04-26T07:08:03.225Z,1232.00
2023-04-26T07:09:03.239Z,1236.00
2023-04-26T07:10:03.704Z,1251.00
2023-04-26T07:11:03.201Z,1258.00
2023-04-26T07:12:03.211Z,1269.00
2023-04-26T07:13:03.212Z,1270.00
2023-04-26T07:14:03.221Z,1272.00
2023-04-26T07:15:03.190Z,1280.00
2023-04-26T07:16:03.221Z,1288.00
2023-04-26T07:17:03.208Z,1292.00
2023-04-26T07:18:03.248Z,1299.00
2023-04-26T07:19:03.274Z,1307.00
2023-04-26T07:20:03.283Z,1383.00
2023-04-26T07:21:03.336Z,1373.00
2023-04-26T07:22:03.309Z,1377.00
2023-04-26T07:23:03.369Z,1384.00
2023-04-26T07:24:03.382Z,1386.00
2023-04-26T07:25:03.398Z,1461.00
2023-04-26T07:26:03.403Z,1419.00
2023-04-26T07:27:03.411Z,1400.00
2023-04-26T07:28:03.426Z,1410.00
2023-04-26T07:29:03.412Z,1445.00
2023-04-26T07:30:03.651Z,1464.00
2023-04-26T07:31:03.459Z,1565.00
2023-04-26T07:32:03.479Z,1467.00
2023-04-26T07:33:03.558Z,1475.00
2023-04-26T07:34:03.469Z,1460.00
2023-04-26T07:35:03.473Z,1443.00
2023-04-26T07:36:03.431Z,1435.00
2023-04-26T07:37:03.449Z,1429.00
2023-04-26T07:38:03.469Z,1429.00
2023-04-26T07:39:03.465Z,1423.00
2023-04-26T07:40:03.448Z,1433.00
2023-04-26T07:41:03.476Z,1442.00
2023-04-26T07:42:03.452Z,1452.00
2023-04-26T07:43:03.457Z,1468.00
2023-04-26T07:44:03.477Z,1473.00
2023-04-26T07:45:03.490Z,1474.00
2023-04-26T07:46:03.639Z,1482.00
2023-04-26T07:47:03.472Z,1485.00
2023-04-26T07:48:03.544Z,1484.00
2023-04-26T07:49:03.466Z,1478.00
2023-04-26T07:50:03.519Z,1466.00
2023-04-26T07:51:03.504Z,1457.00
2023-04-26T07:52:03.516Z,1446.00
2023-04-26T07:53:03.581Z,1437.00
2023-04-26T07:54:03.512Z,1423.00
2023-04-26T07:55:03.564Z,1405.00
2023-04-26T07:56:03.583Z,1392.00
2023-04-26T07:57:03.614Z,1377.00
2023-04-26T07:58:03.628Z,1367.00
2023-04-26T07:59:03.645Z,1354.00
2023-04-26T08:00:03.654Z,1344.00
2023-04-26T08:01:03.760Z,1319.00
2023-04-26T08:02:03.817Z,1295.00
2023-04-26T08:03:03.947Z,1228.00
2023-04-26T08:04:03.966Z,1223.00
2023-04-26T08:05:04.036Z,1215.00
2023-04-26T08:06:04.121Z,1204.00
2023-04-26T08:07:03.895Z,1194.00
2023-04-26T08:08:03.882Z,1181.00
2023-04-26T08:09:03.929Z,1171.00
2023-04-26T08:10:04.271Z,1159.00
2023-04-26T08:11:04.027Z,1130.00
2023-04-26T08:12:04.099Z,1124.00
2023-04-26T08:13:04.058Z,1109.00
2023-04-26T08:14:04.097Z,1095.00
2023-04-26T08:15:04.099Z,1084.00
2023-04-26T08:16:04.132Z,1073.00
2023-04-26T08:17:04.202Z,1072.00
2023-04-26T08:18:04.270Z,1066.00
2023-04-26T08:19:04.219Z,1048.00
2023-04-26T08:20:04.277Z,1040.00
2023-04-26T08:21:04.290Z,1045.00
2023-04-26T08:22:04.329Z,1044.00
2023-04-26T08:23:04.353Z,1036.00
2023-04-26T08:24:04.398Z,1028.00
2023-04-26T08:25:04.415Z,1012.00
2023-04-26T08:26:04.443Z,992.00
2023-04-26T08:27:04.487Z,989.00
2023-04-26T08:28:04.560Z,992.00
2023-04-26T08:29:04.546Z,982.00
2023-04-26T08:30:04.582Z,942.00
2023-04-26T08:31:04.635Z,912.00
2023-04-26T08:32:04.647Z,900.00
2023-04-26T08:33:04.682Z,896.00
2023-04-26T08:34:04.702Z,889.00
2023-04-26T08:35:04.770Z,886.00
2023-04-26T08:36:04.741Z,898.00
2023-04-26T08:37:04.844Z,914.00
2023-04-26T08:38:04.866Z,919.00
2023-04-26T08:39:04.900Z,918.00
2023-04-26T08:40:05.284Z,910.00
2023-04-26T08:41:04.932Z,900.00
2023-04-26T08:42:04.958Z,890.00
2023-04-26T08:43:05.003Z,880.00
2023-04-26T08:44:05.038Z,871.00
2023-04-26T08:45:05.081Z,863.00
2023-04-26T08:46:05.186Z,848.00
2023-04-26T08:47:05.183Z,821.00
2023-04-26T08:48:05.174Z,809.00
2023-04-26T08:49:05.192Z,798.00
2023-04-26T08:50:05.247Z,789.00
2023-04-26T08:51:05.750Z,782.00
2023-04-26T08:52:05.269Z,776.00
2023-04-26T08:53:05.317Z,768.00
2023-04-26T08:54:05.372Z,763.00
2023-04-26T08:55:05.387Z,756.00
2023-04-26T08:56:05.753Z,753.00
2023-04-26T08:57:05.471Z,751.00
2023-04-26T08:58:05.496Z,749.00
2023-04-26T08:59:05.530Z,747.00
2023-04-26T09:00:05.664Z,743.00
2023-04-26T09:01:05.581Z,739.00
2023-04-26T09:02:05.690Z,732.00
2023-04-26T09:03:05.756Z,726.00
2023-04-26T09:04:05.817Z,721.00
2023-04-26T09:05:05.797Z,719.00
2023-04-26T09:06:05.874Z,713.00
2023-04-26T09:07:05.757Z,710.00
2023-04-26T09:08:05.801Z,704.00
2023-04-26T09:09:05.857Z,701.00
2023-04-26T09:10:05.862Z,700.00
2023-04-26T09:11:05.906Z,698.00
2023-04-26T09:12:05.931Z,695.00
2023-04-26T09:13:05.960Z,692.00
2023-04-26T09:14:05.968Z,688.00
2023-04-26T09:15:06.013Z,685.00
2023-04-26T09:16:06.084Z,680.00
2023-04-26T09:17:06.048Z,676.00
2023-04-26T09:18:06.141Z,671.00
2023-04-26T09:19:06.132Z,666.00
2023-04-26T09:20:07.986Z,664.00
2023-04-26T09:21:06.179Z,663.00
2023-04-26T09:22:06.258Z,658.00
2023-04-26T09:23:06.211Z,658.00
2023-04-26T09:24:06.284Z,652.00
2023-04-26T09:25:06.250Z,652.00
2023-04-26T09:26:06.271Z,649.00
2023-04-26T09:27:06.297Z,649.00
2023-04-26T09:28:06.372Z,650.00
2023-04-26T09:29:06.362Z,647.00
2023-04-26T09:30:06.358Z,646.00
2023-04-26T09:31:06.426Z,645.00
2023-04-26T09:32:06.414Z,643.00
2023-04-26T09:33:06.532Z,640.00
2023-04-26T09:34:06.460Z,644.00
2023-04-26T09:35:06.514Z,725.00
2023-04-26T09:36:06.535Z,703.00
2023-04-26T09:37:06.548Z,736.00
2023-04-26T09:38:11.738Z,759.00
2023-04-26T09:39:07.560Z,760.00
2023-04-26T09:40:06.581Z,842.00
2023-04-26T09:41:06.790Z,885.00
2023-04-26T09:42:06.540Z,874.00
2023-04-26T09:43:06.544Z,886.00
2023-04-26T09:44:06.570Z,898.00
2023-04-26T09:45:06.521Z,931.00
2023-04-26T09:46:06.781Z,930.00
2023-04-26T09:47:06.592Z,920.00
2023-04-26T09:48:06.609Z,928.00
2023-04-26T09:49:06.510Z,930.00
2023-04-26T09:50:06.494Z,932.00
2023-04-26T09:51:06.442Z,933.00
2023-04-26T09:52:06.433Z,932.00
2023-04-26T09:53:06.454Z,926.00
2023-04-26T09:54:06.480Z,914.00
2023-04-26T09:55:06.446Z,905.00
2023-04-26T09:56:06.441Z,897.00
2023-04-26T09:57:06.414Z,890.00
2023-04-26T09:58:06.415Z,880.00
2023-04-26T09:59:06.431Z,867.00
2023-04-26T10:00:06.419Z,858.00
2023-04-26T10:01:06.430Z,851.00
2023-04-26T10:02:06.402Z,848.00
2023-04-26T10:03:06.460Z,844.00
2023-04-26T10:04:06.451Z,835.00
2023-04-26T10:05:06.358Z,826.00
2023-04-26T10:06:06.368Z,826.00
2023-04-26T10:07:06.345Z,825.00
2023-04-26T10:08:06.344Z,825.00
2023-04-26T10:09:06.338Z,820.00
2023-04-26T10:10:06.328Z,814.00
2023-04-26T10:11:06.346Z,800.00
2023-04-26T10:12:06.334Z,790.00
2023-04-26T10:13:06.302Z,786.00
2023-04-26T10:14:06.301Z,781.00
2023-04-26T10:15:06.331Z,779.00
2023-04-26T10:16:06.332Z,782.00
2023-04-26T10:17:06.319Z,783.00
2023-04-26T10:18:06.376Z,783.00
2023-04-26T10:19:06.295Z,783.00
2023-04-26T10:20:06.258Z,780.00
2023-04-26T10:21:06.295Z,776.00
2023-04-26T10:22:06.240Z,771.00
2023-04-26T10:23:06.279Z,766.00
2023-04-26T10:24:06.232Z,763.00
2023-04-26T10:25:06.261Z,759.00
2023-04-26T10:26:06.265Z,759.00
2023-04-26T10:27:06.230Z,758.00
2023-04-26T10:28:06.238Z,749.00
2023-04-26T10:29:06.474Z,740.00
2023-04-26T10:30:06.211Z,740.00
2023-04-26T10:31:06.261Z,739.00
2023-04-26T10:32:06.342Z,739.00
2023-04-26T10:33:06.329Z,735.00
2023-04-26T10:34:06.277Z,729.00
2023-04-26T10:35:06.283Z,723.00
2023-04-26T10:36:06.320Z,718.00
2023-04-26T10:37:06.299Z,711.00
2023-04-26T10:38:06.298Z,686.00
2023-04-26T10:39:06.314Z,787.00
2023-04-26T10:40:06.296Z,775.00
2023-04-26T10:41:06.359Z,792.00
2023-04-26T10:42:06.450Z,851.00
2023-04-26T10:43:06.341Z,846.00
2023-04-26T10:44:06.386Z,845.00
2023-04-26T10:45:06.366Z,841.00
2023-04-26T10:46:06.395Z,840.00
2023-04-26T10:47:06.344Z,838.00
2023-04-26T10:48:06.400Z,833.00
2023-04-26T10:49:06.365Z,828.00
2023-04-26T10:50:06.499Z,819.00
2023-04-26T10:51:06.324Z,810.00
2023-04-26T10:52:06.356Z,806.00
2023-04-26T10:53:06.328Z,801.00
2023-04-26T10:54:06.340Z,799.00
2023-04-26T10:55:06.398Z,794.00
2023-04-26T10:56:06.332Z,791.00
2023-04-26T10:57:06.376Z,785.00
2023-04-26T10:58:06.354Z,782.00
2023-04-26T10:59:13.619Z,776.00
2023-04-26T11:00:07.326Z,776.00
2023-04-26T11:01:06.412Z,770.00
2023-04-26T11:02:06.327Z,763.00
2023-04-26T11:03:06.464Z,755.00
2023-04-26T11:04:06.375Z,750.00
2023-04-26T11:05:06.346Z,746.00
2023-04-26T11:06:06.266Z,743.00
2023-04-26T11:07:06.239Z,740.00
2023-04-26T11:08:06.269Z,734.00
2023-04-26T11:09:06.254Z,730.00
2023-04-26T11:10:06.263Z,727.00
2023-04-26T11:11:06.282Z,720.00
2023-04-26T11:12:06.265Z,713.00
2023-04-26T11:13:06.221Z,707.00
2023-04-26T11:14:06.234Z,702.00
2023-04-26T11:15:06.222Z,700.00
2023-04-26T11:16:06.334Z,699.00
2023-04-26T11:17:06.215Z,699.00
2023-04-26T11:18:06.290Z,694.00
2023-04-26T11:19:06.186Z,685.00
2023-04-26T11:20:06.201Z,679.00
2023-04-26T11:21:06.153Z,678.00
2023-04-26T11:22:06.163Z,674.00
2023-04-26T11:23:06.142Z,672.00
2023-04-26T11:24:06.162Z,667.00
2023-04-26T11:25:06.140Z,662.00
2023-04-26T11:26:06.290Z,660.00
2023-04-26T11:27:06.148Z,658.00
2023-04-26T11:28:06.174Z,655.00
2023-04-26T11:29:06.151Z,651.00
2023-04-26T11:30:06.114Z,651.00
2023-04-26T11:31:06.364Z,649.00
2023-04-26T11:32:06.149Z,646.00
2023-04-26T11:33:06.103Z,643.00
2023-04-26T11:34:06.103Z,725.00
2023-04-26T11:35:06.097Z,730.00
2023-04-26T11:36:06.096Z,739.00
2023-04-26T11:37:06.056Z,745.00
2023-04-26T11:38:06.054Z,748.00
2023-04-26T11:39:06.049Z,750.00
2023-04-26T11:40:06.058Z,783.00
2023-04-26T11:41:06.048Z,803.00
2023-04-26T11:42:06.033Z,791.00
2023-04-26T11:43:06.028Z,782.00
2023-04-26T11:44:06.038Z,777.00
2023-04-26T11:45:06.008Z,772.00
2023-04-26T11:46:06.099Z,770.00
2023-04-26T11:47:06.116Z,766.00
2023-04-26T11:48:06.090Z,767.00
2023-04-26T11:49:05.978Z,764.00
2023-04-26T11:50:05.981Z,765.00
2023-04-26T11:51:06.036Z,761.00
2023-04-26T11:52:05.962Z,762.00
2023-04-26T11:53:05.969Z,762.00
2023-04-26T11:54:05.969Z,761.00
2023-04-26T11:55:05.973Z,758.00
2023-04-26T11:56:05.930Z,759.00
2023-04-26T11:57:05.933Z,758.00
2023-04-26T11:58:05.928Z,757.00
2023-04-26T11:59:05.936Z,756.00
2023-04-26T12:00:05.943Z,756.00
2023-04-26T12:01:05.886Z,755.00
2023-04-26T12:02:06.023Z,750.00
2023-04-26T12:03:06.122Z,751.00
2023-04-26T12:04:06.001Z,752.00
2023-04-26T12:05:05.988Z,751.00
2023-04-26T12:06:05.880Z,750.00
2023-04-26T12:07:05.873Z,750.00
2023-04-26T12:08:05.850Z,751.00
2023-04-26T12:09:05.898Z,751.00
2023-04-26T12:10:05.852Z,750.00
2023-04-26T12:11:05.855Z,750.00
2023-04-26T12:12:05.819Z,749.00
2023-04-26T12:13:05.837Z,748.00
2023-04-26T12:14:05.844Z,747.00
2023-04-26T12:15:05.815Z,748.00
2023-04-26T12:16:12.289Z,751.00
2023-04-26T12:17:06.870Z,750.00
2023-04-26T12:18:05.921Z,749.00
2023-04-26T12:19:05.823Z,748.00
2023-04-26T12:20:05.795Z,748.00
2023-04-26T12:21:05.773Z,750.00
2023-04-26T12:22:05.748Z,752.00
2023-04-26T12:23:05.770Z,753.00
2023-04-26T12:24:05.756Z,752.00
2023-04-26T12:25:05.734Z,751.00